Time;durP1;ratioP1;P1;durP2;ratioP2;P2;SDS_P1;SDS_P2;PMS_P1;PMS_P2;Temp;Humidity;BMP_temperature;BMP_pressure;BME280_temperature;BME280_humidity;BME280_pressure;Samples;Min_cycle;Max_cycle;Signal;HPM_P1;HPM_P2
2023/10/08 00:02:14;;;;;;;0.20;0.20;;;;;;;11.91;100.00;101802.53;6302285;28;20106;-76
2023/10/08 00:05:16;;;;;;;0.10;0.10;;;;;;;12.06;100.00;101829.16;6302019;28;20048;-76
2023/10/08 00:08:19;;;;;;;0.17;0.17;;;;;;;11.89;100.00;101830.72;6302225;28;20048;-75
2023/10/08 00:11:22;;;;;;;0.10;0.10;;;;;;;11.85;100.00;101837.00;6301704;28;20055;-76
2023/10/08 00:14:24;;;;;;;3.13;0.20;;;;;;;11.83;100.00;101849.41;6301908;28;20049;-76
2023/10/08 00:17:26;;;;;;;0.22;0.20;;;;;;;11.74;100.00;101855.00;6301714;28;20419;-76
2023/10/08 00:20:35;;;;;;;0.43;0.43;;;;;;;11.76;100.00;101857.56;6301671;28;20060;-76
2023/10/08 00:23:41;;;;;;;1.48;0.40;;;;;;;11.79;100.00;101868.84;6301628;28;20084;-77
2023/10/08 00:26:45;;;;;;;0.50;0.30;;;;;;;11.95;100.00;101877.03;6301423;28;20048;-76
2023/10/08 00:29:47;;;;;;;1.17;0.45;;;;;;;12.12;100.00;101889.50;6301244;28;20049;-77
2023/10/08 00:32:48;;;;;;;0.80;0.60;;;;;;;12.06;100.00;101889.75;6301450;28;20044;-76
2023/10/08 00:35:50;;;;;;;1.42;1.08;;;;;;;12.00;100.00;101892.66;6301662;28;20059;-76
2023/10/08 00:38:53;;;;;;;2.10;1.45;;;;;;;11.95;100.00;101899.88;6301085;28;20044;-76
2023/10/08 00:41:58;;;;;;;2.17;1.30;;;;;;;11.88;100.00;101908.03;6300792;28;20467;-77
2023/10/08 00:45:02;;;;;;;2.00;1.30;;;;;;;11.93;100.00;101900.78;6301057;28;20445;-74
2023/10/08 00:48:08;;;;;;;5.13;1.73;;;;;;;12.07;100.00;101907.28;6301141;28;20047;-77
2023/10/08 00:51:25;;;;;;;2.00;1.13;;;;;;;12.17;100.00;101908.59;6300766;28;20460;-77
2023/10/08 00:54:32;;;;;;;1.15;1.00;;;;;;;12.29;100.00;101915.16;6301375;28;20429;-74
2023/10/08 00:57:37;;;;;;;1.58;1.00;;;;;;;12.30;100.00;101916.88;6300959;28;20059;-74
2023/10/08 01:00:41;;;;;;;0.88;0.45;;;;;;;12.17;100.00;101919.13;6300750;28;20053;-74
2023/10/08 01:03:44;;;;;;;0.70;0.50;;;;;;;12.20;100.00;101916.38;6300670;28;20048;-74
2023/10/08 01:06:49;;;;;;;1.10;0.80;;;;;;;12.25;100.00;101921.47;6300944;28;20093;-74
2023/10/08 01:09:51;;;;;;;5.75;1.23;;;;;;;12.29;100.00;101923.06;6300264;28;20053;-77
2023/10/08 01:13:04;;;;;;;1.67;1.00;;;;;;;12.29;100.00;101917.78;6300622;28;20057;-76
2023/10/08 01:16:09;;;;;;;0.93;0.60;;;;;;;12.35;100.00;101928.94;6300817;28;20053;-74
2023/10/08 01:19:13;;;;;;;6.60;0.95;;;;;;;12.30;100.00;101932.69;6299862;28;20059;-75
2023/10/08 01:22:18;;;;;;;1.00;0.70;;;;;;;12.24;100.00;101930.31;6300106;28;20053;-75
2023/10/08 01:25:21;;;;;;;1.85;0.70;;;;;;;12.31;100.00;101935.28;6300413;28;20048;-75
2023/10/08 01:28:28;;;;;;;1.33;0.60;;;;;;;12.36;100.00;101943.00;6300058;28;20051;-75
2023/10/08 01:31:31;;;;;;;1.25;0.50;;;;;;;12.21;100.00;101964.69;6300097;28;20477;-75
2023/10/08 01:34:36;;;;;;;2.05;0.90;;;;;;;12.17;100.00;101949.03;6300115;28;20044;-75
2023/10/08 01:37:40;;;;;;;1.40;0.77;;;;;;;12.20;100.00;101961.19;6300406;28;20127;-74
2023/10/08 01:40:42;;;;;;;2.15;0.88;;;;;;;12.24;100.00;101973.34;6299919;28;20105;-75
2023/10/08 01:43:44;;;;;;;2.63;0.95;;;;;;;12.21;100.00;101970.81;6300328;28;20048;-75
2023/10/08 01:46:47;;;;;;;0.95;0.70;;;;;;;12.32;100.00;101954.56;6300030;28;20539;-75
2023/10/08 01:49:49;;;;;;;2.58;0.90;;;;;;;12.25;100.00;101950.47;6299778;28;20048;-75
2023/10/08 01:52:52;;;;;;;1.55;0.50;;;;;;;12.14;100.00;101940.38;6300384;28;20048;-75
2023/10/08 01:55:55;;;;;;;0.95;0.77;;;;;;;12.20;100.00;101942.75;6300140;28;20052;-75
2023/10/08 01:58:56;;;;;;;3.55;0.80;;;;;;;12.25;100.00;101945.19;6300007;28;20131;-74
2023/10/08 02:01:58;;;;;;;5.45;0.60;;;;;;;11.97;100.00;101956.00;6299739;28;20506;-75
2023/10/08 02:04:59;;;;;;;2.60;0.45;;;;;;;11.96;100.00;101954.28;6300641;28;20063;-75
2023/10/08 02:08:03;;;;;;;2.38;0.63;;;;;;;12.13;100.00;101942.16;6304963;28;20045;-75
2023/10/08 02:11:05;;;;;;;1.42;0.82;;;;;;;12.18;100.00;101941.97;6304463;28;20497;-75
2023/10/08 02:14:07;;;;;;;1.30;0.50;;;;;;;12.15;100.00;101950.84;6304552;28;20403;-75
2023/10/08 02:17:09;;;;;;;2.17;0.40;;;;;;;12.26;100.00;101946.91;6304887;28;20044;-75
2023/10/08 02:20:12;;;;;;;5.00;0.65;;;;;;;12.29;100.00;101945.00;6304489;28;20052;-75
2023/10/08 02:23:15;;;;;;;1.65;0.73;;;;;;;12.36;100.00;101959.66;6304606;28;20456;-75
2023/10/08 02:26:17;;;;;;;0.73;0.52;;;;;;;12.34;100.00;101942.19;6304519;28;20051;-75
2023/10/08 02:29:19;;;;;;;0.88;0.60;;;;;;;12.36;100.00;101949.13;6304049;28;20076;-75
2023/10/08 02:32:22;;;;;;;4.53;0.82;;;;;;;12.33;100.00;101943.09;6304283;28;20064;-75
2023/10/08 02:35:23;;;;;;;3.90;0.50;;;;;;;12.32;100.00;101949.31;6303453;28;20049;-75
2023/10/08 02:38:28;;;;;;;0.50;0.50;;;;;;;12.35;100.00;101970.25;6304249;28;20044;-75
2023/10/08 02:41:29;;;;;;;3.40;0.80;;;;;;;12.26;100.00;101984.66;6303860;28;20190;-75
2023/10/08 02:44:32;;;;;;;1.95;0.40;;;;;;;12.20;100.00;101982.28;6304156;28;20056;-75
2023/10/08 02:47:33;;;;;;;1.00;0.43;;;;;;;12.29;100.00;101968.72;6303838;28;20055;-74
2023/10/08 02:50:35;;;;;;;1.65;0.98;;;;;;;12.27;100.00;101983.75;6303810;28;20048;-75
2023/10/08 02:53:40;;;;;;;2.83;0.75;;;;;;;12.21;100.00;101970.81;6303700;28;20052;-75
2023/10/08 02:56:44;;;;;;;0.40;0.38;;;;;;;12.25;100.00;101964.50;6303963;28;20372;-75
2023/10/08 02:59:45;;;;;;;0.45;0.45;;;;;;;12.31;100.00;101959.00;6303528;28;20087;-74
2023/10/08 03:02:47;;;;;;;0.80;0.50;;;;;;;12.30;100.00;101970.44;6303413;28;20360;-74
2023/10/08 03:05:50;;;;;;;0.88;0.65;;;;;;;12.30;100.00;101990.66;6303666;28;20049;-75
2023/10/08 03:08:53;;;;;;;0.60;0.50;;;;;;;12.34;100.00;102005.44;6303364;28;20532;-74
2023/10/08 03:11:54;;;;;;;1.48;0.60;;;;;;;12.38;100.00;102009.66;6303472;28;20059;-75
2023/10/08 03:15:12;;;;;;;1.95;0.70;;;;;;;12.19;100.00;102010.41;6303457;28;20044;-75
2023/10/08 03:18:15;;;;;;;3.67;0.63;;;;;;;12.26;100.00;102021.56;6301663;28;20045;-74
2023/10/08 03:21:21;;;;;;;1.15;0.65;;;;;;;12.08;100.00;102017.00;6302762;28;20391;-75
2023/10/08 03:24:37;;;;;;;1.35;0.60;;;;;;;12.14;100.00;102025.56;6303031;28;20052;-75
2023/10/08 03:27:41;;;;;;;1.73;0.50;;;;;;;12.18;100.00;102027.16;6278048;28;20053;-75
2023/10/08 03:30:49;;;;;;;3.45;0.80;;;;;;;12.28;100.00;102037.34;6295221;28;20044;-75
2023/10/08 03:33:51;;;;;;;2.15;0.57;;;;;;;12.30;100.00;102032.84;6333489;22;20532;-70
2023/10/08 03:36:59;;;;;;;1.35;0.60;;;;;;;12.26;100.00;102024.19;6327767;28;20344;-71
2023/10/08 03:40:21;;;;;;;0.77;0.70;;;;;;;12.13;100.00;102034.38;6328167;28;20424;-71
2023/10/08 03:43:33;;;;;;;2.40;0.70;;;;;;;12.04;100.00;102036.53;6327847;28;20055;-71
2023/10/08 03:46:39;;;;;;;0.82;0.60;;;;;;;12.02;100.00;102038.34;6327808;28;20455;-71
2023/10/08 03:49:45;;;;;;;1.75;0.70;;;;;;;12.10;100.00;102036.28;6327077;28;20109;-71
2023/10/08 03:52:48;;;;;;;2.72;0.80;;;;;;;12.18;100.00;102036.84;6327429;28;20071;-71
2023/10/08 03:55:54;;;;;;;1.08;0.70;;;;;;;11.97;100.00;102042.94;6327423;28;20058;-71
2023/10/08 03:59:00;;;;;;;1.23;0.90;;;;;;;11.98;100.00;102056.03;6327224;28;20105;-71
2023/10/08 04:02:13;;;;;;;1.08;0.70;;;;;;;11.96;100.00;102055.25;6327264;28;20094;-71
2023/10/08 04:05:19;;;;;;;1.17;0.60;;;;;;;12.01;100.00;102062.97;6327330;28;20083;-71
2023/10/08 04:08:24;;;;;;;2.92;1.27;;;;;;;12.00;100.00;102069.16;6327244;28;20044;-71
2023/10/08 04:11:32;;;;;;;1.25;0.63;;;;;;;12.05;100.00;102067.22;6327398;28;20052;-71
2023/10/08 04:14:34;;;;;;;2.75;0.88;;;;;;;12.08;100.00;102067.97;6327172;28;20051;-71
2023/10/08 04:17:43;;;;;;;2.85;0.90;;;;;;;12.07;100.00;102079.41;6326787;28;20040;-71
2023/10/08 04:21:00;;;;;;;4.80;1.40;;;;;;;12.12;100.00;102071.31;6326720;28;20054;-72
2023/10/08 04:24:03;;;;;;;2.28;0.98;;;;;;;12.06;100.00;102071.56;6326902;28;20048;-71
2023/10/08 04:27:09;;;;;;;2.30;1.20;;;;;;;12.08;100.00;102065.34;6326719;28;20465;-71
2023/10/08 04:30:13;;;;;;;1.15;0.75;;;;;;;12.10;100.00;102073.16;6325975;28;20439;-71
2023/10/08 04:33:15;;;;;;;5.40;1.40;;;;;;;12.10;100.00;102081.06;6326520;28;20048;-71
2023/10/08 04:36:19;;;;;;;3.65;1.08;;;;;;;11.99;100.00;102097.31;6326413;28;20135;-71
2023/10/08 04:39:26;;;;;;;2.17;1.05;;;;;;;12.03;100.00;102090.97;6326383;28;20436;-71
2023/10/08 04:42:29;;;;;;;1.77;0.90;;;;;;;12.08;100.00;102090.78;6326356;28;20348;-71
2023/10/08 04:45:34;;;;;;;2.40;1.10;;;;;;;12.13;100.00;102084.47;6326496;28;20122;-71
2023/10/08 04:48:36;;;;;;;2.42;1.10;;;;;;;12.14;100.00;102075.63;6326031;28;20185;-71
2023/10/08 04:51:43;;;;;;;3.92;1.15;;;;;;;12.12;100.00;102080.06;6325987;28;20051;-71
2023/10/08 04:54:51;;;;;;;3.58;1.00;;;;;;;12.14;100.00;102073.00;6325860;28;20048;-71
2023/10/08 04:57:53;;;;;;;2.22;1.15;;;;;;;12.16;100.00;102092.22;6326096;28;20056;-71
2023/10/08 05:00:59;;;;;;;5.07;1.33;;;;;;;12.16;100.00;102089.59;6325587;28;20044;-71
2023/10/08 05:11:15;;;;;;;3.83;1.20;;;;;;;11.95;100.00;102122.03;6321673;28;20048;-72
2023/10/08 05:14:28;;;;;;;2.67;1.50;;;;;;;12.01;100.00;102116.53;6321861;28;20352;-72
2023/10/08 05:17:43;;;;;;;3.50;1.20;;;;;;;11.96;100.00;102128.16;6321797;28;20097;-72
2023/10/08 05:21:02;;;;;;;3.83;2.05;;;;;;;11.82;100.00;102128.63;6317534;28;20048;-72
2023/10/08 05:24:13;;;;;;;2.95;1.52;;;;;;;11.85;100.00;102132.03;6311628;28;20356;-71
2023/10/08 05:27:37;;;;;;;4.63;1.50;;;;;;;11.79;100.00;102141.91;6318482;28;20070;-72
2023/10/08 05:30:41;;;;;;;5.40;2.15;;;;;;;11.87;100.00;102134.63;6320133;28;20134;-72
2023/10/08 05:33:59;;;;;;;2.83;1.38;;;;;;;11.92;100.00;102136.16;6304523;28;20098;-72
2023/10/08 05:37:31;;;;;;;2.70;1.40;;;;;;;11.91;100.00;102141.50;6307211;28;20047;-72
2023/10/08 05:44:14;;;;;;;6.50;1.48;;;;;;;11.70;100.00;102153.63;6308359;28;20464;-72
2023/10/08 05:47:37;;;;;;;3.67;1.70;;;;;;;11.68;100.00;102163.38;6308406;28;20143;-73
2023/10/08 05:50:55;;;;;;;5.32;1.80;;;;;;;11.73;100.00;102155.31;6308747;28;20336;-73
2023/10/08 05:53:56;;;;;;;3.65;1.27;;;;;;;11.85;100.00;102125.91;6308602;28;20045;-72
2023/10/08 05:57:14;;;;;;;3.65;1.50;;;;;;;11.92;100.00;102148.47;6307233;28;20045;-71
2023/10/08 06:00:29;;;;;;;3.35;1.42;;;;;;;11.90;100.00;102156.44;6307952;28;20349;-71
2023/10/08 06:03:36;;;;;;;2.92;1.42;;;;;;;11.96;100.00;102143.97;6307320;28;20044;-71
2023/10/08 06:06:47;;;;;;;3.08;1.58;;;;;;;12.04;100.00;102147.19;6306439;28;20325;-72
2023/10/08 06:10:01;;;;;;;1.58;1.00;;;;;;;12.10;100.00;102157.50;6306709;28;20040;-71
2023/10/08 06:13:09;;;;;;;4.35;2.00;;;;;;;11.97;100.00;102159.72;6306189;28;20457;-72
2023/10/08 06:16:13;;;;;;;2.28;1.55;;;;;;;11.97;100.00;102166.75;6306896;28;20078;-72
2023/10/08 06:19:14;;;;;;;5.03;2.13;;;;;;;11.98;100.00;102158.78;6288642;28;20135;-72
2023/10/08 06:22:15;;;;;;;5.30;2.10;;;;;;;12.05;100.00;102155.03;6295440;28;20068;-72
2023/10/08 06:25:22;;;;;;;4.50;1.95;;;;;;;12.08;100.00;102175.13;6297988;28;20048;-71
2023/10/08 06:28:26;;;;;;;6.07;2.25;;;;;;;12.06;100.00;102182.22;6303283;28;20045;-72
2023/10/08 06:31:29;;;;;;;5.47;1.98;;;;;;;12.13;100.00;102199.56;6302204;28;20047;-71
2023/10/08 06:34:31;;;;;;;4.60;2.17;;;;;;;12.18;100.00;102209.00;6303093;28;20124;-71
2023/10/08 06:37:34;;;;;;;3.47;1.52;;;;;;;12.24;100.00;102191.25;6303452;28;20052;-71
2023/10/08 06:40:42;;;;;;;6.45;2.00;;;;;;;12.09;100.00;102208.47;6302941;28;20057;-71
2023/10/08 06:43:48;;;;;;;6.57;2.20;;;;;;;11.98;100.00;102211.47;6303309;28;20044;-71
2023/10/08 06:46:52;;;;;;;6.45;2.20;;;;;;;11.89;100.00;102217.06;6302995;28;20041;-71
2023/10/08 06:49:53;;;;;;;3.30;1.88;;;;;;;11.88;100.00;102223.25;6298519;28;20049;-71
2023/10/08 06:52:55;;;;;;;10.40;2.33;;;;;;;11.98;100.00;102221.16;6298889;28;20056;-71
2023/10/08 06:55:57;;;;;;;4.10;2.20;;;;;;;12.02;100.00;102223.63;6296320;28;20044;-71
2023/10/08 06:59:01;;;;;;;5.72;2.25;;;;;;;12.06;100.00;102229.66;6302623;28;20048;-71
2023/10/08 07:02:03;;;;;;;4.97;2.38;;;;;;;12.12;100.00;102229.44;6302456;28;20056;-71
2023/10/08 07:05:09;;;;;;;5.40;1.98;;;;;;;12.22;100.00;102240.50;6302224;28;20052;-71
2023/10/08 07:08:13;;;;;;;5.28;2.08;;;;;;;12.26;100.00;102253.50;6302526;28;20055;-71
2023/10/08 07:11:14;;;;;;;6.47;2.53;;;;;;;12.31;100.00;102258.63;6302453;28;20056;-71
2023/10/08 07:14:17;;;;;;;6.38;3.30;;;;;;;12.36;100.00;102260.19;6302208;28;20322;-71
2023/10/08 07:17:19;;;;;;;6.30;2.63;;;;;;;12.42;100.00;102270.50;6302448;28;20045;-71
2023/10/08 07:20:22;;;;;;;7.35;2.58;;;;;;;12.42;100.00;102253.81;6297924;28;20104;-71
2023/10/08 07:23:29;;;;;;;4.90;1.90;;;;;;;12.39;100.00;102246.03;6302119;28;20066;-71
2023/10/08 07:26:36;;;;;;;3.63;1.92;;;;;;;12.38;100.00;102254.84;6301890;28;20072;-71
2023/10/08 07:29:39;;;;;;;8.25;2.20;;;;;;;12.39;100.00;102251.28;6300868;28;20051;-71
2023/10/08 07:32:40;;;;;;;5.65;2.63;;;;;;;12.38;100.00;102255.72;6301752;28;20437;-71
2023/10/08 07:35:46;;;;;;;4.65;2.20;;;;;;;12.35;100.00;102263.75;6301769;28;20103;-71
2023/10/08 07:38:47;;;;;;;9.23;2.50;;;;;;;12.38;100.00;102271.53;6301869;28;20514;-71
2023/10/08 07:41:49;;;;;;;3.92;1.92;;;;;;;12.44;100.00;102288.88;6301410;28;20048;-71
2023/10/08 07:44:54;;;;;;;16.25;7.22;;;;;;;12.52;100.00;102296.53;6296785;28;20360;-72
2023/10/08 07:47:58;;;;;;;7.30;3.25;;;;;;;12.42;100.00;102283.69;6282287;28;20468;-76
2023/10/08 07:50:59;;;;;;;3.55;2.35;;;;;;;12.43;100.00;102277.50;6284023;28;20103;-77
2023/10/08 07:54:01;;;;;;;8.35;2.95;;;;;;;12.29;100.00;102284.19;6285497;28;20052;-71
2023/10/08 07:57:09;;;;;;;10.55;1.92;;;;;;;12.39;100.00;102283.78;6285386;28;20499;-69
2023/10/08 08:00:22;;;;;;;6.97;2.22;;;;;;;12.49;100.00;102291.34;6283734;28;20074;-70
2023/10/08 08:03:24;;;;;;;6.60;2.03;;;;;;;12.58;100.00;102301.56;6280896;28;20044;-72
2023/10/08 08:06:26;;;;;;;4.82;1.88;;;;;;;12.46;100.00;102313.44;6281243;28;20461;-69
2023/10/08 08:09:29;;;;;;;7.95;2.25;;;;;;;12.50;100.00;102296.59;6283876;28;20052;-72
2023/10/08 08:12:32;;;;;;;4.15;1.73;;;;;;;12.60;100.00;102286.56;6286482;28;20131;-70
2023/10/08 08:15:40;;;;;;;3.53;1.77;;;;;;;12.56;100.00;102301.63;6290632;28;20044;-70
2023/10/08 08:18:42;;;;;;;3.37;1.70;;;;;;;12.54;100.00;102297.34;6294653;28;20045;-70
2023/10/08 08:21:45;;;;;;;5.95;1.55;;;;;;;12.64;100.00;102306.63;6292381;28;20060;-70
2023/10/08 08:24:47;;;;;;;4.18;1.98;;;;;;;12.66;100.00;102312.69;6289302;28;20334;-70
2023/10/08 08:27:49;;;;;;;7.85;2.05;;;;;;;12.74;100.00;102320.34;6287383;28;20053;-70
2023/10/08 08:30:54;;;;;;;10.65;2.45;;;;;;;12.77;100.00;102320.25;6289323;28;20049;-70
2023/10/08 08:34:02;;;;;;;2.97;1.20;;;;;;;12.63;100.00;102324.25;6289951;28;20103;-70
2023/10/08 08:37:03;;;;;;;4.45;1.42;;;;;;;12.68;100.00;102326.72;6286840;28;20055;-70
2023/10/08 08:40:08;;;;;;;5.05;1.70;;;;;;;12.74;100.00;102336.19;6291685;28;20491;-70
2023/10/08 08:43:11;;;;;;;2.72;1.40;;;;;;;12.66;100.00;102345.22;6291684;28;20047;-70
2023/10/08 08:46:15;;;;;;;2.25;1.20;;;;;;;12.79;100.00;102342.13;6287160;28;20040;-70
2023/10/08 08:49:18;;;;;;;3.35;1.00;;;;;;;12.88;100.00;102357.63;6299959;28;20477;-70
2023/10/08 08:52:19;;;;;;;4.00;1.48;;;;;;;12.89;100.00;102344.38;6299955;28;20045;-69
2023/10/08 08:55:22;;;;;;;3.08;1.33;;;;;;;12.99;100.00;102354.56;6300254;28;20048;-70
2023/10/08 08:58:25;;;;;;;7.05;2.60;;;;;;;12.97;100.00;102352.00;6300154;28;20047;-70
2023/10/08 09:01:29;;;;;;;3.70;1.20;;;;;;;13.10;100.00;102350.63;6288053;28;20053;-70
2023/10/08 09:04:32;;;;;;;9.23;1.10;;;;;;;12.99;100.00;102362.50;6298537;28;20133;-70
2023/10/08 09:07:35;;;;;;;1.42;0.80;;;;;;;13.12;100.00;102363.75;6299855;28;20049;-70
2023/10/08 09:10:50;;;;;;;1.88;0.82;;;;;;;13.13;100.00;102365.50;6296376;28;20071;-70
2023/10/08 09:13:54;;;;;;;5.82;1.20;;;;;;;13.13;100.00;102370.78;6284963;28;20060;-70
2023/10/08 09:16:57;;;;;;;3.28;1.13;;;;;;;13.16;100.00;102368.84;6286430;28;20055;-71
2023/10/08 09:19:59;;;;;;;5.32;1.23;;;;;;;13.19;100.00;102370.53;6287050;28;20041;-71
2023/10/08 09:23:12;;;;;;;3.90;0.90;;;;;;;13.15;100.00;102375.06;6290939;28;20048;-72
2023/10/08 09:26:15;;;;;;;1.75;0.88;;;;;;;13.16;100.00;102360.94;6285710;28;20041;-71
2023/10/08 09:29:16;;;;;;;2.60;0.90;;;;;;;13.19;100.00;102362.63;6287062;28;20444;-71
2023/10/08 09:32:23;;;;;;;2.75;1.05;;;;;;;13.18;100.00;102359.13;6285410;28;20049;-71
2023/10/08 09:35:25;;;;;;;2.00;0.75;;;;;;;13.18;100.00;102363.53;6282750;28;20044;-71
2023/10/08 09:38:30;;;;;;;4.07;1.85;;;;;;;13.18;100.00;102371.47;6286117;28;20436;-71
2023/10/08 09:41:32;;;;;;;4.40;1.23;;;;;;;13.24;100.00;102365.09;6287102;28;20048;-71
2023/10/08 09:44:34;;;;;;;3.67;1.25;;;;;;;13.26;100.00;102352.69;6284683;28;20047;-71
2023/10/08 09:47:43;;;;;;;1.98;0.80;;;;;;;13.30;100.00;102352.50;6286452;28;20079;-72
2023/10/08 09:50:46;;;;;;;;;;;;;;;13.29;100.00;102360.50;6284285;28;20344;-71
2023/10/08 09:53:58;;;;;;;4.90;0.70;;;;;;;13.16;100.00;102352.16;6302865;28;19920;-70
2023/10/08 09:57:00;;;;;;;4.28;0.90;;;;;;;13.24;100.00;102357.19;6303718;28;20139;-69
2023/10/08 10:00:01;;;;;;;6.10;1.30;;;;;;;13.26;100.00;102368.53;6293807;28;20047;-70
2023/10/08 10:03:05;;;;;;;3.00;1.00;;;;;;;13.36;100.00;102359.34;6297546;28;20053;-70
2023/10/08 10:06:14;;;;;;;3.33;1.08;;;;;;;13.43;100.00;102348.47;6299765;28;20075;-70
2023/10/08 10:09:21;;;;;;;4.68;0.95;;;;;;;13.50;100.00;102372.88;6277695;28;20045;-70
2023/10/08 10:12:26;;;;;;;2.70;0.80;;;;;;;13.58;100.00;102398.97;6292249;28;20044;-69
2023/10/08 10:18:46;;;;;;;3.97;0.73;;;;;;;13.71;100.00;102387.84;6212799;28;20070;-76
2023/10/08 10:21:48;;;;;;;7.43;1.77;;;;;;;13.76;100.00;102379.75;6249028;28;20056;-75
2023/10/08 10:24:49;;;;;;;2.83;0.82;;;;;;;13.81;100.00;102376.94;6250909;28;20053;-75
2023/10/08 10:28:24;;;;;;;2.38;0.80;;;;;;;13.78;100.00;102377.06;6251865;28;20054;-78
2023/10/08 10:31:25;;;;;;;0.95;0.55;;;;;;;13.77;100.00;102367.41;6249846;28;20441;-78
2023/10/08 10:34:28;;;;;;;3.25;0.95;;;;;;;13.88;100.00;102387.19;6250923;28;20053;-78
2023/10/08 10:37:40;;;;;;;3.08;0.65;;;;;;;14.11;100.00;102385.38;6252081;28;20433;-78
2023/10/08 10:40:42;;;;;;;5.45;1.10;;;;;;;14.18;100.00;102379.75;6257838;28;20448;-78
2023/10/08 10:43:52;;;;;;;2.42;0.65;;;;;;;14.29;100.00;102394.31;6256782;28;20160;-77
2023/10/08 10:47:25;;;;;;;1.23;0.60;;;;;;;14.40;100.00;102371.78;6253088;28;20056;-71
2023/10/08 10:50:31;;;;;;;1.50;0.60;;;;;;;14.52;100.00;102370.41;6254963;28;20045;-72
2023/10/08 10:53:32;;;;;;;1.55;0.50;;;;;;;14.59;100.00;102381.59;6247498;28;20053;-72
2023/10/08 10:56:42;;;;;;;2.83;0.52;;;;;;;14.58;100.00;102407.19;6245420;28;20442;-72
2023/10/08 10:59:52;;;;;;;2.53;0.82;;;;;;;14.50;100.00;102393.44;6252292;28;20048;-71
2023/10/08 11:02:56;;;;;;;4.40;0.88;;;;;;;14.58;100.00;102343.69;6241707;28;20057;-72
2023/10/08 11:06:05;;;;;;;4.50;0.77;;;;;;;14.65;100.00;102355.69;6246759;28;20053;-71
2023/10/08 11:09:14;;;;;;;;;;;;;;;14.61;100.00;102370.00;6250444;28;20038;-71
2023/10/08 11:12:22;;;;;;;1.77;0.60;;;;;;;14.59;100.00;102384.22;6252545;28;20231;-71
2023/10/08 11:15:24;;;;;;;4.47;0.60;;;;;;;14.73;100.00;102408.28;6264593;28;20050;-71
2023/10/08 11:18:28;;;;;;;1.20;0.65;;;;;;;14.83;100.00;102398.16;6266692;28;20041;-71
2023/10/08 11:21:33;;;;;;;1.88;0.90;;;;;;;14.82;100.00;102378.78;6277178;28;20449;-71
2023/10/08 11:24:37;;;;;;;5.00;0.77;;;;;;;14.92;100.00;102363.34;6268914;28;20053;-71
2023/10/08 11:27:38;;;;;;;5.47;1.25;;;;;;;14.98;100.00;102352.44;6276910;28;20041;-71
2023/10/08 11:30:42;;;;;;;6.35;0.90;;;;;;;15.02;100.00;102354.03;6276655;28;20049;-72
2023/10/08 11:33:53;;;;;;;1.33;0.50;;;;;;;15.00;100.00;102361.19;6276089;28;20482;-71
2023/10/08 11:36:56;;;;;;;3.35;0.75;;;;;;;14.90;100.00;102370.50;6262133;28;20060;-72
2023/10/08 11:39:59;;;;;;;2.55;0.98;;;;;;;14.86;100.00;102375.06;6268356;28;20053;-71
2023/10/08 11:43:03;;;;;;;3.45;0.73;;;;;;;14.86;100.00;102376.84;6276793;28;20060;-72
2023/10/08 11:46:04;;;;;;;4.38;1.15;;;;;;;14.90;100.00;102376.66;6274152;28;20460;-72
2023/10/08 11:49:06;;;;;;;4.35;0.50;;;;;;;14.88;100.00;102370.53;6271698;28;20045;-72
2023/10/08 11:52:11;;;;;;;5.13;0.93;;;;;;;14.89;100.00;102371.41;6276152;28;20364;-72
2023/10/08 11:55:18;;;;;;;4.85;1.10;;;;;;;14.77;100.00;102361.38;6276647;28;20322;-71
2023/10/08 11:58:20;;;;;;;2.00;0.55;;;;;;;14.75;100.00;102364.09;6276325;28;20049;-72
2023/10/08 12:01:21;;;;;;;0.60;0.60;;;;;;;14.73;100.00;102358.00;6276350;28;20071;-71
2023/10/08 12:04:23;;;;;;;4.60;0.98;;;;;;;14.81;100.00;102355.03;6276235;28;20049;-72
2023/10/08 12:07:27;;;;;;;5.10;0.60;;;;;;;14.86;100.00;102353.03;6273359;28;20451;-71
2023/10/08 12:10:31;;;;;;;5.53;1.00;;;;;;;14.82;100.00;102356.75;6275086;28;20091;-71
2023/10/08 12:13:32;;;;;;;4.25;0.82;;;;;;;14.78;100.00;102355.16;6275755;28;20045;-72
2023/10/08 12:16:36;;;;;;;4.45;1.00;;;;;;;14.84;100.00;102346.94;6274854;28;20052;-71
2023/10/08 12:19:40;;;;;;;6.03;1.05;;;;;;;14.91;100.00;102340.44;6274923;28;20048;-71
2023/10/08 12:22:43;;;;;;;1.92;0.57;;;;;;;14.92;100.00;102331.56;6275086;28;20646;-71
2023/10/08 12:25:51;;;;;;;3.28;0.57;;;;;;;14.81;100.00;102312.69;6275542;28;20048;-74
2023/10/08 12:28:53;;;;;;;5.50;0.95;;;;;;;14.90;100.00;102314.91;6269938;28;20182;-72
2023/10/08 12:31:55;;;;;;;5.35;0.90;;;;;;;14.87;100.00;102301.81;6275158;28;20053;-72
2023/10/08 12:34:56;;;;;;;5.15;0.90;;;;;;;14.86;100.00;102289.50;6275028;28;20353;-71
2023/10/08 12:37:59;;;;;;;3.03;1.05;;;;;;;14.93;100.00;102275.03;6262684;28;20044;-72
2023/10/08 12:41:08;;;;;;;2.25;0.70;;;;;;;15.01;100.00;102283.47;6271109;28;20452;-72
2023/10/08 12:44:09;;;;;;;3.92;1.40;;;;;;;15.17;100.00;102297.72;6275648;28;20142;-78
2023/10/08 12:47:12;;;;;;;0.43;0.38;;;;;;;15.29;100.00;102308.66;6275546;28;20053;-78
2023/10/08 12:50:15;;;;;;;2.90;0.63;;;;;;;15.43;100.00;102299.09;6274310;28;20057;-77
2023/10/08 12:53:18;;;;;;;2.40;0.60;;;;;;;15.45;100.00;102314.94;6274991;28;20053;-76
2023/10/08 12:56:31;;;;;;;4.78;0.85;;;;;;;15.50;100.00;102320.84;6275123;28;20352;-77
2023/10/08 12:59:32;;;;;;;2.55;0.82;;;;;;;15.27;100.00;102329.06;6275174;28;20049;-77
2023/10/08 13:02:39;;;;;;;4.13;0.90;;;;;;;15.02;100.00;102324.03;6266667;28;20063;-77
2023/10/08 13:05:44;;;;;;;2.88;0.60;;;;;;;15.14;100.00;102312.88;6275223;28;20096;-77
2023/10/08 13:08:46;;;;;;;3.53;1.65;;;;;;;15.26;100.00;102311.44;6275034;28;20060;-76
2023/10/08 13:11:48;;;;;;;5.72;0.98;;;;;;;15.33;100.00;102312.88;6274996;28;20455;-77
2023/10/08 13:14:49;;;;;;;3.53;1.65;;;;;;;15.58;100.00;102317.81;6274016;28;20049;-76
2023/10/08 13:17:51;;;;;;;13.90;1.25;;;;;;;15.80;100.00;102322.94;6267123;28;20049;-77
2023/10/08 13:20:52;;;;;;;2.03;0.70;;;;;;;16.19;100.00;102326.22;6268347;28;20053;-78
2023/10/08 13:23:56;;;;;;;1.67;0.60;;;;;;;16.45;100.00;102306.28;6267334;28;20053;-78
2023/10/08 13:26:58;;;;;;;1.20;0.77;;;;;;;16.38;100.00;102304.03;6268472;28;20106;-79
2023/10/08 13:30:04;;;;;;;3.83;0.73;;;;;;;16.22;100.00;102309.31;6272087;28;20106;-78
2023/10/08 13:33:08;;;;;;;1.75;0.85;;;;;;;16.17;100.00;102290.97;6274954;28;20064;-79
2023/10/08 13:36:11;;;;;;;2.50;0.80;;;;;;;16.01;100.00;102305.97;6276409;28;20052;-79
2023/10/08 13:39:18;;;;;;;2.45;1.08;;;;;;;15.66;100.00;102289.19;6264371;28;20048;-78
2023/10/08 13:42:20;;;;;;;2.28;0.95;;;;;;;15.91;100.00;102286.16;6267174;28;20063;-79
2023/10/08 13:45:26;;;;;;;2.50;0.68;;;;;;;16.21;100.00;102286.34;6274852;28;20056;-78
2023/10/08 13:48:27;;;;;;;5.90;1.10;;;;;;;16.57;100.00;102288.84;6278732;28;20045;-79
2023/10/08 13:51:29;;;;;;;6.97;0.80;;;;;;;16.77;100.00;102295.78;6269827;28;20456;-79
2023/10/08 13:54:35;;;;;;;5.18;1.00;;;;;;;16.80;100.00;102303.56;6271896;28;20049;-78
2023/10/08 13:57:37;;;;;;;4.07;0.65;;;;;;;16.80;100.00;102308.00;6276153;28;20052;-78
2023/10/08 14:00:38;;;;;;;1.05;0.63;;;;;;;16.47;100.00;102296.44;6274888;28;20049;-79
2023/10/08 14:03:41;;;;;;;2.58;0.80;;;;;;;16.59;100.00;102294.09;6274323;28;20045;-78
2023/10/08 14:06:47;;;;;;;4.30;0.70;;;;;;;16.53;100.00;102308.53;6269305;28;20073;-78
2023/10/08 14:09:50;;;;;;;4.80;1.40;;;;;;;16.55;100.00;102319.94;6271576;28;20325;-78
2023/10/08 14:12:52;;;;;;;5.95;1.83;;;;;;;16.55;100.00;102321.72;6268931;28;20060;-78
2023/10/08 14:15:55;;;;;;;2.47;0.85;;;;;;;16.57;100.00;102306.56;6267217;28;20064;-78
2023/10/08 14:18:59;;;;;;;2.00;0.80;;;;;;;16.55;100.00;102303.16;6268536;28;20429;-79
2023/10/08 14:22:03;;;;;;;1.75;0.80;;;;;;;16.06;100.00;102303.91;6263017;28;20158;-79
2023/10/08 14:25:11;;;;;;;3.55;0.80;;;;;;;16.04;100.00;102304.94;6266387;28;20554;-79